sensor_id;sensor_type;location;lat;lon;timestamp;temperature;humidity
68609;SHT31;55581;46.718;7.690;2023-01-16T00:02:02;1.30;86.39
68609;SHT31;55581;46.718;7.690;2023-01-16T00:04:27;1.30;87.08
68609;SHT31;55581;46.718;7.690;2023-01-16T00:06:53;1.25;86.26
68609;SHT31;55581;46.718;7.690;2023-01-16T00:09:19;1.23;86.56
68609;SHT31;55581;46.718;7.690;2023-01-16T00:11:46;1.15;86.95
68609;SHT31;55581;46.718;7.690;2023-01-16T00:14:13;1.12;87.84
68609;SHT31;55581;46.718;7.690;2023-01-16T00:16:39;1.12;88.17
68609;SHT31;55581;46.718;7.690;2023-01-16T00:19:05;1.15;87.35
68609;SHT31;55581;46.718;7.690;2023-01-16T00:21:30;1.20;86.80
68609;SHT31;55581;46.718;7.690;2023-01-16T00:23:57;1.16;87.05
68609;SHT31;55581;46.718;7.690;2023-01-16T00:26:24;1.18;87.24
68609;SHT31;55581;46.718;7.690;2023-01-16T00:28:50;1.20;86.24
68609;SHT31;55581;46.718;7.690;2023-01-16T00:31:15;1.20;85.26
68609;SHT31;55581;46.718;7.690;2023-01-16T00:33:41;1.18;85.44
68609;SHT31;55581;46.718;7.690;2023-01-16T00:36:09;1.13;86.78
68609;SHT31;55581;46.718;7.690;2023-01-16T00:38:36;1.20;87.92
68609;SHT31;55581;46.718;7.690;2023-01-16T00:41:04;1.20;87.40
68609;SHT31;55581;46.718;7.690;2023-01-16T00:43:31;1.15;87.11
68609;SHT31;55581;46.718;7.690;2023-01-16T00:45:56;1.06;87.66
68609;SHT31;55581;46.718;7.690;2023-01-16T00:48:25;0.96;87.80
68609;SHT31;55581;46.718;7.690;2023-01-16T00:50:50;1.02;87.89
68609;SHT31;55581;46.718;7.690;2023-01-16T00:53:16;0.93;88.15
68609;SHT31;55581;46.718;7.690;2023-01-16T00:55:41;0.87;88.90
68609;SHT31;55581;46.718;7.690;2023-01-16T00:58:10;0.91;89.07
68609;SHT31;55581;46.718;7.690;2023-01-16T01:00:37;1.02;88.37
68609;SHT31;55581;46.718;7.690;2023-01-16T01:03:05;1.02;88.18
68609;SHT31;55581;46.718;7.690;2023-01-16T01:05:34;1.05;87.91
68609;SHT31;55581;46.718;7.690;2023-01-16T01:08:00;1.09;87.48
68609;SHT31;55581;46.718;7.690;2023-01-16T01:10:28;1.08;87.71
68609;SHT31;55581;46.718;7.690;2023-01-16T01:12:54;1.10;87.23
68609;SHT31;55581;46.718;7.690;2023-01-16T01:15:21;1.15;86.86
68609;SHT31;55581;46.718;7.690;2023-01-16T01:17:46;1.22;86.39
68609;SHT31;55581;46.718;7.690;2023-01-16T01:20:13;1.10;86.77
68609;SHT31;55581;46.718;7.690;2023-01-16T01:22:39;0.98;87.05
68609;SHT31;55581;46.718;7.690;2023-01-16T01:25:04;0.92;88.11
68609;SHT31;55581;46.718;7.690;2023-01-16T01:27:30;0.81;88.18
68609;SHT31;55581;46.718;7.690;2023-01-16T01:29:56;0.74;88.60
68609;SHT31;55581;46.718;7.690;2023-01-16T01:32:21;0.70;88.72
68609;SHT31;55581;46.718;7.690;2023-01-16T01:34:46;0.67;88.36
68609;SHT31;55581;46.718;7.690;2023-01-16T01:37:12;0.68;88.47
68609;SHT31;55581;46.718;7.690;2023-01-16T01:39:37;0.60;88.77
68609;SHT31;55581;46.718;7.690;2023-01-16T01:42:03;0.57;89.27
68609;SHT31;55581;46.718;7.690;2023-01-16T01:45:28;0.56;89.75
68609;SHT31;55581;46.718;7.690;2023-01-16T01:50:53;0.65;88.74
68609;SHT31;55581;46.718;7.690;2023-01-16T01:53:35;0.54;88.31
68609;SHT31;55581;46.718;7.690;2023-01-16T01:56:08;0.54;88.27
68609;SHT31;55581;46.718;7.690;2023-01-16T01:58:34;0.43;88.52
68609;SHT31;55581;46.718;7.690;2023-01-16T02:01:03;0.34;88.98
68609;SHT31;55581;46.718;7.690;2023-01-16T02:03:37;0.30;90.05
68609;SHT31;55581;46.718;7.690;2023-01-16T02:06:07;0.37;89.05
68609;SHT31;55581;46.718;7.690;2023-01-16T02:08:35;0.47;87.78
68609;SHT31;55581;46.718;7.690;2023-01-16T02:11:10;0.63;85.73
68609;SHT31;55581;46.718;7.690;2023-01-16T02:14:12;0.78;84.62
68609;SHT31;55581;46.718;7.690;2023-01-16T02:16:38;0.96;85.85
68609;SHT31;55581;46.718;7.690;2023-01-16T02:19:54;1.08;85.90
68609;SHT31;55581;46.718;7.690;2023-01-16T02:28:32;1.23;88.42
68609;SHT31;55581;46.718;7.690;2023-01-16T02:47:58;1.13;86.75
68609;SHT31;55581;46.718;7.690;2023-01-16T02:51:06;1.10;89.03
68609;SHT31;55581;46.718;7.690;2023-01-16T02:53:54;1.10;86.67
68609;SHT31;55581;46.718;7.690;2023-01-16T02:56:27;0.93;87.99
68609;SHT31;55581;46.718;7.690;2023-01-16T02:58:55;0.84;87.16
68609;SHT31;55581;46.718;7.690;2023-01-16T03:01:21;0.78;87.44
68609;SHT31;55581;46.718;7.690;2023-01-16T03:04:03;0.67;88.38
68609;SHT31;55581;46.718;7.690;2023-01-16T03:06:49;0.54;87.59
68609;SHT31;55581;46.718;7.690;2023-01-16T03:09:34;0.42;87.77
68609;SHT31;55581;46.718;7.690;2023-01-16T03:12:24;0.50;86.54
68609;SHT31;55581;46.718;7.690;2023-01-16T03:18:10;0.74;86.68
68609;SHT31;55581;46.718;7.690;2023-01-16T03:37:03;0.87;86.88
68609;SHT31;55581;46.718;7.690;2023-01-16T03:39:36;0.72;88.23
68609;SHT31;55581;46.718;7.690;2023-01-16T03:42:08;0.63;87.10
68609;SHT31;55581;46.718;7.690;2023-01-16T03:44:47;0.63;86.73
68609;SHT31;55581;46.718;7.690;2023-01-16T03:47:20;0.67;88.15
68609;SHT31;55581;46.718;7.690;2023-01-16T03:49:54;0.67;89.56
68609;SHT31;55581;46.718;7.690;2023-01-16T03:52:24;0.88;91.62
68609;SHT31;55581;46.718;7.690;2023-01-16T03:55:06;0.93;87.27
68609;SHT31;55581;46.718;7.690;2023-01-16T03:57:40;0.91;85.43
68609;SHT31;55581;46.718;7.690;2023-01-16T04:00:07;0.93;84.18
68609;SHT31;55581;46.718;7.690;2023-01-16T04:02:54;0.95;84.25
68609;SHT31;55581;46.718;7.690;2023-01-16T04:05:37;0.81;85.16
68609;SHT31;55581;46.718;7.690;2023-01-16T04:08:17;0.78;84.18
68609;SHT31;55581;46.718;7.690;2023-01-16T04:10:46;0.84;86.34
68609;SHT31;55581;46.718;7.690;2023-01-16T04:13:17;0.93;87.20
68609;SHT31;55581;46.718;7.690;2023-01-16T04:15:48;1.01;91.24
68609;SHT31;55581;46.718;7.690;2023-01-16T04:18:15;1.09;88.95
68609;SHT31;55581;46.718;7.690;2023-01-16T04:20:43;1.06;85.41
68609;SHT31;55581;46.718;7.690;2023-01-16T04:23:11;1.01;84.21
68609;SHT31;55581;46.718;7.690;2023-01-16T04:25:39;1.03;84.18
68609;SHT31;55581;46.718;7.690;2023-01-16T04:28:04;0.98;83.57
68609;SHT31;55581;46.718;7.690;2023-01-16T04:30:30;0.96;88.53
68609;SHT31;55581;46.718;7.690;2023-01-16T04:32:55;1.09;90.39
68609;SHT31;55581;46.718;7.690;2023-01-16T04:35:21;1.08;90.47
68609;SHT31;55581;46.718;7.690;2023-01-16T04:37:48;1.09;91.60
68609;SHT31;55581;46.718;7.690;2023-01-16T04:40:14;1.19;85.94
68609;SHT31;55581;46.718;7.690;2023-01-16T04:42:42;1.32;83.83
68609;SHT31;55581;46.718;7.690;2023-01-16T04:45:08;1.37;81.80
68609;SHT31;55581;46.718;7.690;2023-01-16T04:47:34;1.37;81.76
68609;SHT31;55581;46.718;7.690;2023-01-16T04:49:59;1.25;82.42
68609;SHT31;55581;46.718;7.690;2023-01-16T04:52:25;1.13;83.38
68609;SHT31;55581;46.718;7.690;2023-01-16T04:54:50;1.02;83.46
68609;SHT31;55581;46.718;7.690;2023-01-16T04:57:16;0.85;84.18
68609;SHT31;55581;46.718;7.690;2023-01-16T04:59:41;0.84;83.89
68609;SHT31;55581;46.718;7.690;2023-01-16T05:02:07;0.81;86.75
68609;SHT31;55581;46.718;7.690;2023-01-16T05:04:32;0.95;91.00
68609;SHT31;55581;46.718;7.690;2023-01-16T05:06:58;1.03;85.24
68609;SHT31;55581;46.718;7.690;2023-01-16T05:09:23;1.09;84.59
68609;SHT31;55581;46.718;7.690;2023-01-16T05:11:49;1.05;84.30
68609;SHT31;55581;46.718;7.690;2023-01-16T05:14:15;1.10;86.55
68609;SHT31;55581;46.718;7.690;2023-01-16T05:16:41;1.08;88.50
68609;SHT31;55581;46.718;7.690;2023-01-16T05:19:07;1.13;88.43
68609;SHT31;55581;46.718;7.690;2023-01-16T05:21:35;1.13;87.58
68609;SHT31;55581;46.718;7.690;2023-01-16T05:24:03;1.16;87.95
68609;SHT31;55581;46.718;7.690;2023-01-16T05:26:29;1.27;88.32
68609;SHT31;55581;46.718;7.690;2023-01-16T05:28:58;1.12;88.25
68609;SHT31;55581;46.718;7.690;2023-01-16T05:31:24;1.19;87.88
68609;SHT31;55581;46.718;7.690;2023-01-16T05:34:00;1.33;83.10
68609;SHT31;55581;46.718;7.690;2023-01-16T05:36:26;1.44;83.00
68609;SHT31;55581;46.718;7.690;2023-01-16T05:38:52;1.43;84.94
68609;SHT31;55581;46.718;7.690;2023-01-16T05:41:20;1.39;85.24
68609;SHT31;55581;46.718;7.690;2023-01-16T05:43:45;1.35;86.74
68609;SHT31;55581;46.718;7.690;2023-01-16T05:46:11;1.30;86.72
68609;SHT31;55581;46.718;7.690;2023-01-16T05:48:37;1.29;85.99
68609;SHT31;55581;46.718;7.690;2023-01-16T05:51:04;1.30;86.15
68609;SHT31;55581;46.718;7.690;2023-01-16T05:53:31;1.27;86.03
68609;SHT31;55581;46.718;7.690;2023-01-16T05:55:57;1.29;84.63
68609;SHT31;55581;46.718;7.690;2023-01-16T05:58:23;1.26;84.08
68609;SHT31;55581;46.718;7.690;2023-01-16T06:00:49;1.22;83.81
68609;SHT31;55581;46.718;7.690;2023-01-16T06:03:15;1.23;84.61
68609;SHT31;55581;46.718;7.690;2023-01-16T06:05:42;1.22;85.15
68609;SHT31;55581;46.718;7.690;2023-01-16T06:08:07;1.25;84.50
68609;SHT31;55581;46.718;7.690;2023-01-16T06:10:33;1.20;83.84
68609;SHT31;55581;46.718;7.690;2023-01-16T06:13:01;1.19;84.54
68609;SHT31;55581;46.718;7.690;2023-01-16T06:15:27;1.23;85.58
68609;SHT31;55581;46.718;7.690;2023-01-16T06:17:55;1.19;86.93
68609;SHT31;55581;46.718;7.690;2023-01-16T06:20:21;1.26;84.88
68609;SHT31;55581;46.718;7.690;2023-01-16T06:22:47;1.25;85.18
68609;SHT31;55581;46.718;7.690;2023-01-16T06:25:16;1.30;84.52
68609;SHT31;55581;46.718;7.690;2023-01-16T06:27:42;1.27;84.84
68609;SHT31;55581;46.718;7.690;2023-01-16T06:30:08;1.19;85.66
68609;SHT31;55581;46.718;7.690;2023-01-16T06:32:34;1.12;87.08
68609;SHT31;55581;46.718;7.690;2023-01-16T06:34:59;1.18;85.33
68609;SHT31;55581;46.718;7.690;2023-01-16T06:37:25;1.18;84.73
68609;SHT31;55581;46.718;7.690;2023-01-16T06:39:50;1.18;84.48
68609;SHT31;55581;46.718;7.690;2023-01-16T06:42:15;1.18;82.78
68609;SHT31;55581;46.718;7.690;2023-01-16T06:44:41;1.20;82.80
68609;SHT31;55581;46.718;7.690;2023-01-16T06:47:06;1.29;85.35
68609;SHT31;55581;46.718;7.690;2023-01-16T06:49:33;1.29;83.36
68609;SHT31;55581;46.718;7.690;2023-01-16T06:51:59;1.32;82.73
68609;SHT31;55581;46.718;7.690;2023-01-16T06:54:26;1.23;83.39
68609;SHT31;55581;46.718;7.690;2023-01-16T06:56:52;1.26;83.42
68609;SHT31;55581;46.718;7.690;2023-01-16T06:59:18;1.29;82.83
68609;SHT31;55581;46.718;7.690;2023-01-16T07:01:44;1.36;81.48
68609;SHT31;55581;46.718;7.690;2023-01-16T07:04:10;1.39;80.28
68609;SHT31;55581;46.718;7.690;2023-01-16T07:06:36;1.42;80.89
68609;SHT31;55581;46.718;7.690;2023-01-16T07:09:04;1.35;81.66
68609;SHT31;55581;46.718;7.690;2023-01-16T07:11:30;1.33;83.30
68609;SHT31;55581;46.718;7.690;2023-01-16T07:13:55;1.30;84.54
68609;SHT31;55581;46.718;7.690;2023-01-16T07:16:42;1.32;84.43
68609;SHT31;55581;46.718;7.690;2023-01-16T07:19:26;1.36;83.46
68609;SHT31;55581;46.718;7.690;2023-01-16T07:22:12;1.29;83.88
68609;SHT31;55581;46.718;7.690;2023-01-16T07:24:57;1.26;83.43
68609;SHT31;55581;46.718;7.690;2023-01-16T07:27:23;1.25;83.08
68609;SHT31;55581;46.718;7.690;2023-01-16T07:29:49;1.26;82.26
68609;SHT31;55581;46.718;7.690;2023-01-16T07:32:15;1.19;81.85
68609;SHT31;55581;46.718;7.690;2023-01-16T07:34:41;1.10;81.73
68609;SHT31;55581;46.718;7.690;2023-01-16T07:37:07;0.98;79.71
68609;SHT31;55581;46.718;7.690;2023-01-16T07:39:38;0.93;79.11
68609;SHT31;55581;46.718;7.690;2023-01-16T07:42:05;0.93;80.96
68609;SHT31;55581;46.718;7.690;2023-01-16T07:44:31;0.93;80.87
68609;SHT31;55581;46.718;7.690;2023-01-16T07:46:56;0.98;81.55
68609;SHT31;55581;46.718;7.690;2023-01-16T07:49:22;1.03;82.76
68609;SHT31;55581;46.718;7.690;2023-01-16T07:51:47;1.05;83.70
68609;SHT31;55581;46.718;7.690;2023-01-16T07:54:13;1.08;82.82
68609;SHT31;55581;46.718;7.690;2023-01-16T07:56:39;1.09;82.17
68609;SHT31;55581;46.718;7.690;2023-01-16T07:59:05;1.18;82.19
68609;SHT31;55581;46.718;7.690;2023-01-16T08:01:30;1.22;82.45
68609;SHT31;55581;46.718;7.690;2023-01-16T08:03:56;1.25;82.35
68609;SHT31;55581;46.718;7.690;2023-01-16T08:06:21;1.33;82.91
68609;SHT31;55581;46.718;7.690;2023-01-16T08:08:47;1.42;81.97
68609;SHT31;55581;46.718;7.690;2023-01-16T08:11:12;1.48;82.84
68609;SHT31;55581;46.718;7.690;2023-01-16T08:13:56;1.42;81.43
68609;SHT31;55581;46.718;7.690;2023-01-16T08:16:22;1.39;80.43
68609;SHT31;55581;46.718;7.690;2023-01-16T08:18:48;1.37;79.72
68609;SHT31;55581;46.718;7.690;2023-01-16T08:21:15;1.27;79.59
68609;SHT31;55581;46.718;7.690;2023-01-16T08:23:41;1.23;80.29
68609;SHT31;55581;46.718;7.690;2023-01-16T08:26:09;1.12;80.18
68609;SHT31;55581;46.718;7.690;2023-01-16T08:28:38;1.08;80.31
68609;SHT31;55581;46.718;7.690;2023-01-16T08:31:10;1.05;80.89
68609;SHT31;55581;46.718;7.690;2023-01-16T08:33:40;1.05;81.16
68609;SHT31;55581;46.718;7.690;2023-01-16T08:36:08;0.99;81.82
68609;SHT31;55581;46.718;7.690;2023-01-16T08:38:34;0.98;81.38
68609;SHT31;55581;46.718;7.690;2023-01-16T08:40:59;0.95;82.47
68609;SHT31;55581;46.718;7.690;2023-01-16T08:43:25;1.06;82.22
68609;SHT31;55581;46.718;7.690;2023-01-16T08:46:20;1.03;81.92
68609;SHT31;55581;46.718;7.690;2023-01-16T08:49:10;0.89;81.99
68609;SHT31;55581;46.718;7.690;2023-01-16T08:51:56;1.01;82.00
68609;SHT31;55581;46.718;7.690;2023-01-16T08:54:21;1.02;80.03
68609;SHT31;55581;46.718;7.690;2023-01-16T08:56:49;1.12;79.86
68609;SHT31;55581;46.718;7.690;2023-01-16T08:59:15;1.15;80.44
68609;SHT31;55581;46.718;7.690;2023-01-16T09:01:41;1.32;79.95
68609;SHT31;55581;46.718;7.690;2023-01-16T09:04:07;1.26;79.09
68609;SHT31;55581;46.718;7.690;2023-01-16T09:06:33;1.33;79.38
68609;SHT31;55581;46.718;7.690;2023-01-16T09:09:02;1.32;77.93
68609;SHT31;55581;46.718;7.690;2023-01-16T09:11:28;1.36;77.51
68609;SHT31;55581;46.718;7.690;2023-01-16T09:14:12;1.46;78.38
68609;SHT31;55581;46.718;7.690;2023-01-16T09:16:38;1.58;78.55
68609;SHT31;55581;46.718;7.690;2023-01-16T09:19:03;1.71;78.24
68609;SHT31;55581;46.718;7.690;2023-01-16T09:21:32;1.84;78.57
68609;SHT31;55581;46.718;7.690;2023-01-16T09:23:58;1.95;78.15
68609;SHT31;55581;46.718;7.690;2023-01-16T09:26:27;2.06;79.64
68609;SHT31;55581;46.718;7.690;2023-01-16T09:28:52;2.15;77.56
68609;SHT31;55581;46.718;7.690;2023-01-16T09:31:18;2.11;80.81
68609;SHT31;55581;46.718;7.690;2023-01-16T09:33:45;2.18;81.08
68609;SHT31;55581;46.718;7.690;2023-01-16T09:36:14;2.02;81.02
68609;SHT31;55581;46.718;7.690;2023-01-16T09:38:39;2.03;81.91
68609;SHT31;55581;46.718;7.690;2023-01-16T09:41:07;2.11;80.93
68609;SHT31;55581;46.718;7.690;2023-01-16T09:43:42;2.09;80.84
68609;SHT31;55581;46.718;7.690;2023-01-16T09:46:13;2.19;80.91
68609;SHT31;55581;46.718;7.690;2023-01-16T09:51:42;2.39;80.63
68609;SHT31;55581;46.718;7.690;2023-01-16T09:54:35;2.49;79.26
68609;SHT31;55581;46.718;7.690;2023-01-16T09:57:21;2.58;77.99
68609;SHT31;55581;46.718;7.690;2023-01-16T10:00:07;2.70;75.68
68609;SHT31;55581;46.718;7.690;2023-01-16T10:02:34;2.65;75.86
68609;SHT31;55581;46.718;7.690;2023-01-16T10:05:03;2.58;76.71
68609;SHT31;55581;46.718;7.690;2023-01-16T10:12:33;2.44;78.51
68609;SHT31;55581;46.718;7.690;2023-01-16T10:18:33;2.71;76.79
68609;SHT31;55581;46.718;7.690;2023-01-16T10:30:03;2.89;74.44
68609;SHT31;55581;46.718;7.690;2023-01-16T10:32:37;2.89;74.93
68609;SHT31;55581;46.718;7.690;2023-01-16T10:37:43;2.98;75.72
68609;SHT31;55581;46.718;7.690;2023-01-16T10:42:42;3.04;77.10
68609;SHT31;55581;46.718;7.690;2023-01-16T10:45:30;3.08;77.37
68609;SHT31;55581;46.718;7.690;2023-01-16T10:48:17;3.15;77.55
68609;SHT31;55581;46.718;7.690;2023-01-16T10:51:03;3.26;77.14
68609;SHT31;55581;46.718;7.690;2023-01-16T10:53:32;3.49;75.65
68609;SHT31;55581;46.718;7.690;2023-01-16T10:55:58;3.53;76.14
68609;SHT31;55581;46.718;7.690;2023-01-16T10:58:34;3.51;74.72
68609;SHT31;55581;46.718;7.690;2023-01-16T11:06:06;3.34;74.58
68609;SHT31;55581;46.718;7.690;2023-01-16T11:08:32;3.40;76.14
68609;SHT31;55581;46.718;7.690;2023-01-16T11:10:58;3.42;75.46
68609;SHT31;55581;46.718;7.690;2023-01-16T11:13:25;3.53;75.55
68609;SHT31;55581;46.718;7.690;2023-01-16T11:18:55;3.50;75.24
68609;SHT31;55581;46.718;7.690;2023-01-16T11:24:15;3.60;75.87
68609;SHT31;55581;46.718;7.690;2023-01-16T11:26:48;3.60;75.49
68609;SHT31;55581;46.718;7.690;2023-01-16T11:29:16;3.59;76.28
68609;SHT31;55581;46.718;7.690;2023-01-16T11:31:53;3.63;75.79
68609;SHT31;55581;46.718;7.690;2023-01-16T11:34:21;3.73;76.08
68609;SHT31;55581;46.718;7.690;2023-01-16T11:36:55;3.79;75.54
68609;SHT31;55581;46.718;7.690;2023-01-16T11:39:24;3.98;75.24
68609;SHT31;55581;46.718;7.690;2023-01-16T11:41:52;4.02;75.74
68609;SHT31;55581;46.718;7.690;2023-01-16T11:44:30;4.05;76.21
68609;SHT31;55581;46.718;7.690;2023-01-16T11:47:21;4.26;73.63
68609;SHT31;55581;46.718;7.690;2023-01-16T11:49:51;4.32;74.40
68609;SHT31;55581;46.718;7.690;2023-01-16T11:52:22;4.32;75.10
68609;SHT31;55581;46.718;7.690;2023-01-16T11:54:56;4.36;76.08
68609;SHT31;55581;46.718;7.690;2023-01-16T12:03:09;4.37;77.88
68609;SHT31;55581;46.718;7.690;2023-01-16T12:14:17;4.43;76.87
68609;SHT31;55581;46.718;7.690;2023-01-16T12:25:18;4.67;77.33
68609;SHT31;55581;46.718;7.690;2023-01-16T12:34:00;4.98;76.86
68609;SHT31;55581;46.718;7.690;2023-01-16T12:36:30;5.11;75.92
68609;SHT31;55581;46.718;7.690;2023-01-16T12:41:33;5.19;73.18
68609;SHT31;55581;46.718;7.690;2023-01-16T13:00:15;5.79;69.38
68609;SHT31;55581;46.718;7.690;2023-01-16T13:02:55;5.90;68.48
68609;SHT31;55581;46.718;7.690;2023-01-16T13:05:27;6.03;67.67
68609;SHT31;55581;46.718;7.690;2023-01-16T13:08:10;6.20;68.72
68609;SHT31;55581;46.718;7.690;2023-01-16T13:10:44;6.30;64.71
68609;SHT31;55581;46.718;7.690;2023-01-16T13:13:55;6.33;64.77
68609;SHT31;55581;46.718;7.690;2023-01-16T13:18:54;6.15;65.66
68609;SHT31;55581;46.718;7.690;2023-01-16T13:21:30;6.03;65.86
68609;SHT31;55581;46.718;7.690;2023-01-16T13:26:30;5.97;67.82
68609;SHT31;55581;46.718;7.690;2023-01-16T13:31:40;6.01;68.46
68609;SHT31;55581;46.718;7.690;2023-01-16T13:34:14;5.94;69.80
68609;SHT31;55581;46.718;7.690;2023-01-16T13:42:11;5.60;71.04
68609;SHT31;55581;46.718;7.690;2023-01-16T13:44:41;5.65;72.46
68609;SHT31;55581;46.718;7.690;2023-01-16T13:47:30;5.73;73.31
68609;SHT31;55581;46.718;7.690;2023-01-16T13:52:48;5.75;72.08
68609;SHT31;55581;46.718;7.690;2023-01-16T13:55:35;5.81;71.06
68609;SHT31;55581;46.718;7.690;2023-01-16T13:58:22;5.81;70.95
68609;SHT31;55581;46.718;7.690;2023-01-16T14:01:03;5.75;73.33
68609;SHT31;55581;46.718;7.690;2023-01-16T14:03:33;5.73;74.10
68609;SHT31;55581;46.718;7.690;2023-01-16T14:17:11;5.75;70.90
68609;SHT31;55581;46.718;7.690;2023-01-16T14:19:59;5.71;71.51
68609;SHT31;55581;46.718;7.690;2023-01-16T14:22:54;5.64;72.05
68609;SHT31;55581;46.718;7.690;2023-01-16T14:25:38;5.65;72.29
68609;SHT31;55581;46.718;7.690;2023-01-16T14:28:16;5.61;72.98
68609;SHT31;55581;46.718;7.690;2023-01-16T14:30:42;5.65;73.10
68609;SHT31;55581;46.718;7.690;2023-01-16T14:33:18;5.70;72.34
68609;SHT31;55581;46.718;7.690;2023-01-16T14:35:49;5.64;73.94
68609;SHT31;55581;46.718;7.690;2023-01-16T14:38:20;5.64;73.66
68609;SHT31;55581;46.718;7.690;2023-01-16T14:40:55;5.64;73.44
68609;SHT31;55581;46.718;7.690;2023-01-16T14:44:01;5.60;73.93
68609;SHT31;55581;46.718;7.690;2023-01-16T14:46:58;5.56;74.53
68609;SHT31;55581;46.718;7.690;2023-01-16T14:50:05;5.33;75.67
68609;SHT31;55581;46.718;7.690;2023-01-16T14:52:57;5.16;75.01
68609;SHT31;55581;46.718;7.690;2023-01-16T14:55:56;5.25;74.28
68609;SHT31;55581;46.718;7.690;2023-01-16T15:01:00;5.19;74.12
68609;SHT31;55581;46.718;7.690;2023-01-16T15:03:46;5.13;74.30
68609;SHT31;55581;46.718;7.690;2023-01-16T15:06:12;5.23;75.63
68609;SHT31;55581;46.718;7.690;2023-01-16T15:08:41;5.08;73.80
68609;SHT31;55581;46.718;7.690;2023-01-16T15:14:17;5.05;76.13
68609;SHT31;55581;46.718;7.690;2023-01-16T15:22:51;5.39;70.71
68609;SHT31;55581;46.718;7.690;2023-01-16T15:31:01;5.15;71.36
68609;SHT31;55581;46.718;7.690;2023-01-16T15:33:32;5.08;73.29
68609;SHT31;55581;46.718;7.690;2023-01-16T15:36:45;5.05;72.51
68609;SHT31;55581;46.718;7.690;2023-01-16T15:39:39;4.96;70.70
68609;SHT31;55581;46.718;7.690;2023-01-16T15:42:13;4.89;71.74
68609;SHT31;55581;46.718;7.690;2023-01-16T15:45:17;4.82;73.38
68609;SHT31;55581;46.718;7.690;2023-01-16T15:50:55;5.02;69.52
68609;SHT31;55581;46.718;7.690;2023-01-16T15:53:23;5.05;67.05
68609;SHT31;55581;46.718;7.690;2023-01-16T15:56:00;5.07;69.38
68609;SHT31;55581;46.718;7.690;2023-01-16T15:58:26;4.95;71.93
68609;SHT31;55581;46.718;7.690;2023-01-16T16:03:29;4.74;73.32
68609;SHT31;55581;46.718;7.690;2023-01-16T16:06:06;4.72;73.46
68609;SHT31;55581;46.718;7.690;2023-01-16T16:08:39;4.72;73.46
68609;SHT31;55581;46.718;7.690;2023-01-16T16:11:08;4.68;71.73
68609;SHT31;55581;46.718;7.690;2023-01-16T16:13:56;4.60;72.10
68609;SHT31;55581;46.718;7.690;2023-01-16T16:16:26;4.63;71.48
68609;SHT31;55581;46.718;7.690;2023-01-16T16:19:30;4.77;68.98
68609;SHT31;55581;46.718;7.690;2023-01-16T16:21:57;4.96;61.62
68609;SHT31;55581;46.718;7.690;2023-01-16T16:24:42;5.15;60.86
68609;SHT31;55581;46.718;7.690;2023-01-16T16:27:13;5.26;59.76
68609;SHT31;55581;46.718;7.690;2023-01-16T16:29:52;5.29;59.89
68609;SHT31;55581;46.718;7.690;2023-01-16T16:32:20;5.25;59.72
68609;SHT31;55581;46.718;7.690;2023-01-16T16:34:58;5.15;60.30
68609;SHT31;55581;46.718;7.690;2023-01-16T16:37:24;5.02;66.32
68609;SHT31;55581;46.718;7.690;2023-01-16T16:39:57;5.01;61.17
68609;SHT31;55581;46.718;7.690;2023-01-16T16:45:31;5.43;55.67
68609;SHT31;55581;46.718;7.690;2023-01-16T16:48:19;5.46;55.28
68609;SHT31;55581;46.718;7.690;2023-01-16T16:50:45;5.50;55.40
68609;SHT31;55581;46.718;7.690;2023-01-16T16:55:48;5.47;53.05
68609;SHT31;55581;46.718;7.690;2023-01-16T16:58:17;5.53;54.23
68609;SHT31;55581;46.718;7.690;2023-01-16T17:00:44;5.43;55.20
68609;SHT31;55581;46.718;7.690;2023-01-16T17:03:20;5.33;57.02
68609;SHT31;55581;46.718;7.690;2023-01-16T17:05:47;5.43;53.23
68609;SHT31;55581;46.718;7.690;2023-01-16T17:08:25;5.53;51.86
68609;SHT31;55581;46.718;7.690;2023-01-16T17:10:56;5.51;53.35
68609;SHT31;55581;46.718;7.690;2023-01-16T17:13:22;5.60;53.22
68609;SHT31;55581;46.718;7.690;2023-01-16T17:16:01;5.60;53.66
68609;SHT31;55581;46.718;7.690;2023-01-16T17:18:27;5.54;53.03
68609;SHT31;55581;46.718;7.690;2023-01-16T17:20:53;5.51;53.87
68609;SHT31;55581;46.718;7.690;2023-01-16T17:23:20;5.46;54.38
68609;SHT31;55581;46.718;7.690;2023-01-16T17:25:47;5.43;56.53
68609;SHT31;55581;46.718;7.690;2023-01-16T17:28:12;5.30;55.36
68609;SHT31;55581;46.718;7.690;2023-01-16T17:30:39;5.16;56.86
68609;SHT31;55581;46.718;7.690;2023-01-16T17:33:19;5.09;58.22
68609;SHT31;55581;46.718;7.690;2023-01-16T17:35:47;5.29;53.17
68609;SHT31;55581;46.718;7.690;2023-01-16T17:38:38;5.47;52.06
68609;SHT31;55581;46.718;7.690;2023-01-16T17:41:15;5.43;55.55
68609;SHT31;55581;46.718;7.690;2023-01-16T17:43:41;5.44;53.56
68609;SHT31;55581;46.718;7.690;2023-01-16T17:46:25;5.40;54.01
68609;SHT31;55581;46.718;7.690;2023-01-16T17:48:51;5.36;54.63
68609;SHT31;55581;46.718;7.690;2023-01-16T17:51:17;5.39;52.90
68609;SHT31;55581;46.718;7.690;2023-01-16T17:53:49;5.35;55.11
68609;SHT31;55581;46.718;7.690;2023-01-16T17:56:14;5.30;56.55
68609;SHT31;55581;46.718;7.690;2023-01-16T17:58:41;5.29;56.47
68609;SHT31;55581;46.718;7.690;2023-01-16T18:01:14;5.27;56.60
68609;SHT31;55581;46.718;7.690;2023-01-16T18:03:48;5.32;55.62
68609;SHT31;55581;46.718;7.690;2023-01-16T18:06:17;5.30;56.00
68609;SHT31;55581;46.718;7.690;2023-01-16T18:08:42;5.22;56.70
68609;SHT31;55581;46.718;7.690;2023-01-16T18:11:11;5.22;53.79
68609;SHT31;55581;46.718;7.690;2023-01-16T18:13:55;5.13;56.98
68609;SHT31;55581;46.718;7.690;2023-01-16T18:16:39;4.99;61.57
68609;SHT31;55581;46.718;7.690;2023-01-16T18:19:23;4.84;63.24
68609;SHT31;55581;46.718;7.690;2023-01-16T18:21:49;4.72;59.89
68609;SHT31;55581;46.718;7.690;2023-01-16T18:24:29;4.63;61.39
68609;SHT31;55581;46.718;7.690;2023-01-16T18:26:55;4.61;66.58
68609;SHT31;55581;46.718;7.690;2023-01-16T18:29:24;4.72;64.27
68609;SHT31;55581;46.718;7.690;2023-01-16T18:31:49;4.61;70.56
68609;SHT31;55581;46.718;7.690;2023-01-16T18:34:34;4.65;71.26
68609;SHT31;55581;46.718;7.690;2023-01-16T18:37:00;4.47;75.38
68609;SHT31;55581;46.718;7.690;2023-01-16T18:39:25;4.34;77.38
68609;SHT31;55581;46.718;7.690;2023-01-16T18:42:10;4.36;76.33
68609;SHT31;55581;46.718;7.690;2023-01-16T18:44:54;4.23;77.04
68609;SHT31;55581;46.718;7.690;2023-01-16T18:47:41;4.17;77.54
68609;SHT31;55581;46.718;7.690;2023-01-16T18:50:25;4.05;76.49
68609;SHT31;55581;46.718;7.690;2023-01-16T18:53:16;4.02;78.25
68609;SHT31;55581;46.718;7.690;2023-01-16T18:56:05;3.94;80.51
68609;SHT31;55581;46.718;7.690;2023-01-16T18:58:52;3.85;79.58
68609;SHT31;55581;46.718;7.690;2023-01-16T19:01:36;3.64;80.20
68609;SHT31;55581;46.718;7.690;2023-01-16T19:04:21;3.46;80.82
68609;SHT31;55581;46.718;7.690;2023-01-16T19:06:47;3.36;81.56
68609;SHT31;55581;46.718;7.690;2023-01-16T19:09:14;3.26;82.31
68609;SHT31;55581;46.718;7.690;2023-01-16T19:11:43;3.24;82.02
68609;SHT31;55581;46.718;7.690;2023-01-16T19:14:09;3.22;82.30
68609;SHT31;55581;46.718;7.690;2023-01-16T19:16:36;3.24;81.96
68609;SHT31;55581;46.718;7.690;2023-01-16T19:19:14;3.29;81.37
68609;SHT31;55581;46.718;7.690;2023-01-16T19:21:41;3.29;81.62